createdAt,value
2022-11-16T00:02:20.999Z,10.77
2022-11-16T00:04:49.334Z,10.79
2022-11-16T00:07:17.551Z,10.83
2022-11-16T00:09:46.034Z,10.83
2022-11-16T00:12:15.504Z,10.80
2022-11-16T00:14:43.622Z,10.75
2022-11-16T00:17:11.626Z,10.79
2022-11-16T00:19:39.685Z,10.77
2022-11-16T00:22:07.950Z,10.76
2022-11-16T00:24:36.479Z,10.78
2022-11-16T00:27:04.669Z,10.82
2022-11-16T00:29:34.249Z,10.79
2022-11-16T00:32:02.429Z,10.84
2022-11-16T00:34:30.476Z,10.83
2022-11-16T00:36:58.956Z,10.78
2022-11-16T00:39:27.075Z,10.84
2022-11-16T00:41:57.718Z,10.89
2022-11-16T00:44:25.756Z,10.83
2022-11-16T00:46:55.274Z,10.89
2022-11-16T00:49:23.266Z,10.87
2022-11-16T00:51:51.279Z,10.90
2022-11-16T00:54:19.467Z,10.84
2022-11-16T00:56:47.567Z,10.82
2022-11-16T00:59:15.627Z,10.85
2022-11-16T01:01:43.767Z,10.85
2022-11-16T01:04:13.305Z,10.89
2022-11-16T01:06:41.330Z,10.90
2022-11-16T01:09:09.372Z,10.88
2022-11-16T01:11:55.586Z,10.90
2022-11-16T01:14:23.615Z,10.89
2022-11-16T01:16:51.974Z,10.89
2022-11-16T01:19:21.354Z,10.86
2022-11-16T01:21:49.447Z,10.89
2022-11-16T01:24:17.566Z,10.87
2022-11-16T01:26:45.648Z,10.90
2022-11-16T01:29:13.881Z,10.87
2022-11-16T01:31:41.958Z,10.91
2022-11-16T01:34:10.205Z,10.86
2022-11-16T01:36:39.638Z,10.75
2022-11-16T01:39:07.768Z,10.76
2022-11-16T01:41:36.984Z,10.83
2022-11-16T01:44:07.857Z,10.83
2022-11-16T01:46:35.850Z,10.87
2022-11-16T01:49:06.920Z,10.80
2022-11-16T01:51:35.873Z,10.85
2022-11-16T01:54:09.755Z,10.81
2022-11-16T01:56:39.767Z,10.87
2022-11-16T01:59:08.128Z,10.93
2022-11-16T02:01:36.270Z,10.84
2022-11-16T02:04:04.309Z,10.85
2022-11-16T02:06:38.538Z,10.89
2022-11-16T02:09:46.903Z,10.87
2022-11-16T02:12:33.522Z,10.82
2022-11-16T02:15:13.781Z,10.82
2022-11-16T02:17:53.045Z,10.85
2022-11-16T02:20:54.469Z,10.83
2022-11-16T02:24:16.104Z,10.83
2022-11-16T02:27:15.552Z,10.86
2022-11-16T02:29:49.041Z,10.82
2022-11-16T02:32:22.494Z,10.80
2022-11-16T02:34:55.510Z,10.81
2022-11-16T02:37:29.749Z,10.81
2022-11-16T02:40:00.273Z,10.84
2022-11-16T02:42:34.172Z,10.81
2022-11-16T02:45:07.259Z,10.83
2022-11-16T02:47:40.567Z,10.81
2022-11-16T02:50:13.140Z,10.82
2022-11-16T02:52:41.159Z,10.76
2022-11-16T02:55:10.492Z,10.82
2022-11-16T02:57:50.381Z,10.82
2022-11-16T03:00:24.037Z,10.79
2022-11-16T03:03:01.139Z,10.85
2022-11-16T03:05:34.645Z,10.87
2022-11-16T03:08:10.264Z,10.86
2022-11-16T03:10:58.662Z,10.89
2022-11-16T03:13:31.996Z,10.81
2022-11-16T03:16:03.913Z,10.84
2022-11-16T03:18:32.595Z,10.90
2022-11-16T03:21:11.473Z,10.87
2022-11-16T03:23:39.650Z,10.87
2022-11-16T03:26:12.559Z,10.87
2022-11-16T03:28:49.339Z,10.85
2022-11-16T03:31:29.590Z,10.82
2022-11-16T03:34:01.340Z,10.86
2022-11-16T03:36:34.951Z,10.90
2022-11-16T03:39:07.639Z,10.91
2022-11-16T03:41:39.333Z,10.89
2022-11-16T03:44:09.926Z,10.86
2022-11-16T03:46:40.059Z,10.85
2022-11-16T03:49:08.117Z,10.81
2022-11-16T03:51:36.208Z,10.84
2022-11-16T03:54:04.468Z,10.81
2022-11-16T03:56:32.543Z,10.83
2022-11-16T03:59:00.521Z,10.83
2022-11-16T04:01:28.602Z,10.88
2022-11-16T04:03:58.161Z,10.88
2022-11-16T04:06:43.916Z,10.89
2022-11-16T04:09:29.571Z,10.93
2022-11-16T04:12:15.441Z,10.90
2022-11-16T04:15:01.851Z,10.86
2022-11-16T04:17:47.623Z,10.87
2022-11-16T04:20:35.158Z,10.83
2022-11-16T04:23:26.031Z,10.76
2022-11-16T04:25:54.477Z,10.81
2022-11-16T04:28:26.182Z,10.83
2022-11-16T04:31:15.448Z,10.85
2022-11-16T04:34:01.148Z,10.89
2022-11-16T04:36:48.329Z,10.85
2022-11-16T04:39:16.694Z,10.86
2022-11-16T04:42:02.878Z,10.90
2022-11-16T04:44:51.300Z,10.91
2022-11-16T04:47:18.380Z,10.94
2022-11-16T04:49:46.528Z,10.91
2022-11-16T04:52:15.924Z,10.92
2022-11-16T04:54:43.990Z,10.90
2022-11-16T04:57:12.097Z,10.91
2022-11-16T04:59:40.396Z,10.89
2022-11-16T05:02:11.017Z,10.92
2022-11-16T05:04:40.626Z,10.92
2022-11-16T05:07:11.087Z,10.91
2022-11-16T05:09:43.058Z,10.91
2022-11-16T05:12:14.821Z,10.91
2022-11-16T05:14:43.138Z,10.95
2022-11-16T05:17:14.561Z,10.91
2022-11-16T05:20:00.385Z,10.92
2022-11-16T05:22:28.839Z,10.89
2022-11-16T05:24:58.533Z,10.86
2022-11-16T05:27:28.192Z,10.87
2022-11-16T05:29:56.790Z,10.90
2022-11-16T05:32:25.956Z,10.90
2022-11-16T05:34:56.707Z,10.87
2022-11-16T05:37:26.775Z,10.91
2022-11-16T05:39:57.058Z,10.85
2022-11-16T05:42:26.694Z,10.87
2022-11-16T05:44:54.722Z,10.88
2022-11-16T05:47:22.746Z,10.83
2022-11-16T05:49:50.815Z,10.86
2022-11-16T05:52:18.833Z,10.85
2022-11-16T05:54:47.166Z,10.85
2022-11-16T05:57:15.496Z,10.82
2022-11-16T05:59:45.150Z,10.80
2022-11-16T06:02:13.250Z,10.72
2022-11-16T06:04:41.282Z,10.72
2022-11-16T06:07:09.475Z,10.72
2022-11-16T06:09:37.638Z,10.72
2022-11-16T06:12:06.614Z,10.69
2022-11-16T06:14:34.606Z,10.62
2022-11-16T06:17:04.012Z,10.62
2022-11-16T06:19:32.669Z,10.59
2022-11-16T06:22:01.103Z,10.58
2022-11-16T06:24:29.140Z,10.58
2022-11-16T06:26:57.501Z,10.57
2022-11-16T06:29:25.575Z,10.54
2022-11-16T06:31:53.930Z,10.45
2022-11-16T06:34:23.369Z,10.44
2022-11-16T06:36:51.387Z,10.43
2022-11-16T06:39:19.419Z,10.34
2022-11-16T06:41:47.862Z,10.34
2022-11-16T06:44:16.181Z,10.35
2022-11-16T06:46:44.271Z,10.26
2022-11-16T06:49:12.572Z,10.17
2022-11-16T06:51:42.038Z,10.08
2022-11-16T06:54:10.204Z,10.05
2022-11-16T06:56:38.355Z,9.97
2022-11-16T06:59:06.429Z,9.93
2022-11-16T07:01:34.543Z,9.88
2022-11-16T07:04:02.603Z,9.76
2022-11-16T07:06:30.899Z,9.73
2022-11-16T07:09:00.372Z,9.61
2022-11-16T07:11:28.447Z,9.57
2022-11-16T07:13:56.513Z,9.51
2022-11-16T07:16:24.868Z,9.43
2022-11-16T07:18:56.544Z,9.45
2022-11-16T07:21:24.994Z,9.42
2022-11-16T07:23:53.068Z,9.39
2022-11-16T07:26:22.708Z,9.30
2022-11-16T07:28:50.813Z,9.38
2022-11-16T07:31:20.349Z,9.38
2022-11-16T07:33:48.372Z,9.43
2022-11-16T07:36:17.026Z,9.45
2022-11-16T07:38:45.503Z,9.44
2022-11-16T07:41:15.832Z,9.50
2022-11-16T07:43:51.468Z,9.46
2022-11-16T07:46:46.659Z,9.41
2022-11-16T07:49:15.022Z,9.37
2022-11-16T07:51:43.209Z,9.30
2022-11-16T07:54:13.587Z,9.36
2022-11-16T07:56:42.469Z,9.41
2022-11-16T07:59:11.974Z,9.53
2022-11-16T08:01:40.122Z,9.68
2022-11-16T08:04:08.245Z,9.79
2022-11-16T08:06:36.358Z,10.03
2022-11-16T08:09:06.665Z,9.96
2022-11-16T08:11:34.683Z,10.09
2022-11-16T08:14:02.789Z,10.08
2022-11-16T08:16:33.436Z,10.24
2022-11-16T08:19:02.407Z,10.40
2022-11-16T08:21:30.530Z,10.54
2022-11-16T08:23:59.098Z,10.47
2022-11-16T08:26:27.721Z,10.51
2022-11-16T08:28:57.209Z,10.66
2022-11-16T08:31:28.140Z,10.54
2022-11-16T08:33:57.850Z,10.55
2022-11-16T08:36:25.947Z,10.44
2022-11-16T08:38:54.407Z,10.37
2022-11-16T08:41:22.763Z,10.49
2022-11-16T08:43:53.351Z,10.49
2022-11-16T08:46:22.101Z,10.47
2022-11-16T08:48:50.251Z,10.49
2022-11-16T08:51:20.727Z,10.51
2022-11-16T08:53:49.699Z,10.53
2022-11-16T08:56:19.333Z,10.44
2022-11-16T08:58:50.297Z,10.55
2022-11-16T09:01:22.464Z,10.58
2022-11-16T09:03:51.171Z,10.70
2022-11-16T09:06:20.828Z,10.65
2022-11-16T09:08:49.119Z,10.67
2022-11-16T09:11:19.053Z,10.64
2022-11-16T09:13:48.773Z,10.64
2022-11-16T09:16:17.537Z,10.70
2022-11-16T09:18:47.197Z,10.68
2022-11-16T09:21:20.588Z,10.71
2022-11-16T09:23:49.046Z,10.74
2022-11-16T09:26:20.585Z,10.78
2022-11-16T09:28:49.773Z,10.91
2022-11-16T09:31:23.119Z,11.08
2022-11-16T09:33:51.973Z,11.07
2022-11-16T09:36:21.627Z,11.31
2022-11-16T09:41:57.284Z,11.55
2022-11-16T09:44:49.455Z,11.77
2022-11-16T09:47:19.829Z,11.72
2022-11-16T09:49:55.704Z,11.62
2022-11-16T09:52:34.064Z,12.17
2022-11-16T09:55:19.363Z,12.14
2022-11-16T09:57:49.067Z,12.04
2022-11-16T10:00:22.787Z,11.88
2022-11-16T10:03:02.107Z,11.81
2022-11-16T10:05:37.630Z,11.71
2022-11-16T10:08:15.746Z,11.77
2022-11-16T10:10:54.229Z,11.65
2022-11-16T10:13:36.333Z,11.60
2022-11-16T10:16:12.447Z,11.46
2022-11-16T10:18:53.720Z,11.50
2022-11-16T10:21:45.677Z,11.62
2022-11-16T10:24:38.789Z,11.58
2022-11-16T10:27:25.564Z,11.61
2022-11-16T10:30:03.708Z,11.68
2022-11-16T10:32:35.293Z,11.86
2022-11-16T10:35:09.340Z,11.94
2022-11-16T10:37:42.125Z,11.98
2022-11-16T10:40:19.935Z,11.78
2022-11-16T10:42:55.016Z,11.86
2022-11-16T10:45:28.895Z,11.71
2022-11-16T10:48:02.953Z,11.74
2022-11-16T10:50:38.617Z,11.97
2022-11-16T10:53:14.513Z,12.16
2022-11-16T10:55:43.985Z,12.05
2022-11-16T10:58:12.066Z,12.12
2022-11-16T11:00:43.439Z,12.13
2022-11-16T11:03:12.147Z,12.03
2022-11-16T11:05:50.537Z,12.03
2022-11-16T11:08:30.554Z,12.00
2022-11-16T11:11:22.684Z,11.94
2022-11-16T11:14:05.149Z,11.91
2022-11-16T11:16:35.491Z,11.81
2022-11-16T11:19:20.861Z,11.76
2022-11-16T11:21:50.096Z,11.96
2022-11-16T11:27:09.342Z,12.26
2022-11-16T11:29:38.955Z,12.11
2022-11-16T11:32:09.248Z,12.11
2022-11-16T11:34:42.789Z,11.91
2022-11-16T11:37:17.103Z,11.83
2022-11-16T11:39:45.931Z,11.86
2022-11-16T11:42:24.783Z,11.87
2022-11-16T11:44:58.671Z,11.90
2022-11-16T11:47:59.023Z,11.80
2022-11-16T11:50:39.413Z,11.84
2022-11-16T11:53:13.004Z,11.79
2022-11-16T11:55:41.012Z,11.77
2022-11-16T11:58:17.087Z,11.75
2022-11-16T12:00:56.873Z,11.65
2022-11-16T12:04:12.184Z,11.58
2022-11-16T12:06:46.028Z,11.58
2022-11-16T12:09:26.516Z,11.63
2022-11-16T12:12:14.335Z,11.73
2022-11-16T12:15:00.707Z,11.64
2022-11-16T12:17:36.334Z,11.74
2022-11-16T12:20:22.793Z,11.76
2022-11-16T12:23:12.870Z,11.79
2022-11-16T12:25:51.075Z,11.74
2022-11-16T12:28:31.675Z,11.92
2022-11-16T12:31:16.787Z,11.89
2022-11-16T12:33:54.077Z,11.79
2022-11-16T12:36:35.376Z,11.78
2022-11-16T12:39:15.534Z,11.83
2022-11-16T12:42:21.771Z,11.93
2022-11-16T12:45:32.442Z,12.02
2022-11-16T12:48:25.626Z,12.08
2022-11-16T12:51:00.741Z,12.10
2022-11-16T12:53:49.898Z,12.13
2022-11-16T12:56:32.375Z,12.14
2022-11-16T12:59:24.520Z,12.13
2022-11-16T13:02:00.797Z,12.10
2022-11-16T13:04:35.807Z,12.15
2022-11-16T13:07:11.457Z,12.10
2022-11-16T13:09:43.076Z,12.08
2022-11-16T13:12:15.431Z,12.04
2022-11-16T13:14:47.000Z,12.16
2022-11-16T13:17:20.687Z,12.10
2022-11-16T13:20:17.758Z,12.05
2022-11-16T13:22:55.287Z,11.99
2022-11-16T13:25:30.340Z,12.04
2022-11-16T13:28:07.576Z,11.99
2022-11-16T13:30:45.136Z,12.00
2022-11-16T13:33:28.173Z,12.00
2022-11-16T13:35:57.503Z,12.04
2022-11-16T13:38:53.209Z,11.97
2022-11-16T13:41:28.916Z,11.90
2022-11-16T13:43:57.042Z,11.94
2022-11-16T13:46:55.305Z,11.86
2022-11-16T13:49:32.150Z,11.76
2022-11-16T13:52:21.921Z,11.71
2022-11-16T13:54:54.746Z,11.63
2022-11-16T13:57:26.537Z,11.63
2022-11-16T14:00:09.680Z,11.58
2022-11-16T14:02:40.092Z,11.55
2022-11-16T14:05:17.607Z,11.47
2022-11-16T14:07:49.883Z,11.39
2022-11-16T14:11:06.783Z,11.46
2022-11-16T14:13:39.319Z,11.45
2022-11-16T14:16:32.882Z,11.45
2022-11-16T14:19:03.193Z,11.42
2022-11-16T14:21:45.635Z,11.53
2022-11-16T14:24:26.914Z,11.50
2022-11-16T14:27:06.074Z,11.50
2022-11-16T14:29:49.992Z,11.51
2022-11-16T14:32:24.589Z,11.46
2022-11-16T14:34:55.758Z,11.54
2022-11-16T14:37:33.833Z,11.53
2022-11-16T14:40:09.095Z,11.45
2022-11-16T14:43:09.595Z,11.42
2022-11-16T14:45:36.650Z,11.43
2022-11-16T14:48:07.441Z,11.45
2022-11-16T14:50:40.793Z,11.45
2022-11-16T14:53:13.464Z,11.41
2022-11-16T14:55:46.074Z,11.42
2022-11-16T14:58:19.327Z,11.41
2022-11-16T15:00:55.159Z,11.41
2022-11-16T15:03:24.969Z,11.33
2022-11-16T15:05:53.768Z,11.27
2022-11-16T15:08:26.008Z,11.20
2022-11-16T15:10:58.788Z,11.09
2022-11-16T15:13:27.085Z,11.12
2022-11-16T15:16:09.541Z,11.07
2022-11-16T15:18:37.583Z,11.05
2022-11-16T15:21:06.577Z,10.99
2022-11-16T15:23:34.850Z,10.90
2022-11-16T15:26:04.728Z,10.89
2022-11-16T15:28:34.058Z,10.81
2022-11-16T15:31:04.947Z,10.75
2022-11-16T15:33:37.067Z,10.64
2022-11-16T15:36:24.044Z,10.70
2022-11-16T15:38:54.089Z,10.62
2022-11-16T15:41:25.531Z,10.57
2022-11-16T15:44:13.442Z,10.51
2022-11-16T15:46:44.050Z,10.43
2022-11-16T15:49:22.829Z,10.44
2022-11-16T15:51:50.977Z,10.35
2022-11-16T15:54:24.112Z,10.26
2022-11-16T15:56:56.253Z,10.26
2022-11-16T15:59:28.872Z,10.18
2022-11-16T16:01:57.811Z,10.12
2022-11-16T16:04:27.370Z,10.08
2022-11-16T16:06:57.387Z,9.98
2022-11-16T16:09:28.372Z,9.94
2022-11-16T16:12:16.629Z,9.86
2022-11-16T16:14:45.572Z,9.81
2022-11-16T16:17:23.596Z,9.74
2022-11-16T16:19:56.881Z,9.74
2022-11-16T16:22:31.538Z,9.70
2022-11-16T16:25:01.511Z,9.65
2022-11-16T16:27:32.580Z,9.61
2022-11-16T16:30:06.648Z,9.56
2022-11-16T16:32:36.923Z,9.55
2022-11-16T16:35:07.814Z,9.47
2022-11-16T16:37:36.945Z,9.46
2022-11-16T16:40:06.063Z,9.41
2022-11-16T16:42:35.472Z,9.36
2022-11-16T16:45:03.648Z,9.30
2022-11-16T16:47:32.514Z,9.27
2022-11-16T16:50:00.510Z,9.27
2022-11-16T16:52:28.594Z,9.21
2022-11-16T16:54:57.133Z,9.17
2022-11-16T16:57:25.151Z,9.12
2022-11-16T16:59:54.969Z,9.06
2022-11-16T17:02:25.697Z,9.02
2022-11-16T17:04:53.798Z,8.98
2022-11-16T17:07:21.843Z,8.94
2022-11-16T17:09:50.003Z,8.92
2022-11-16T17:12:18.080Z,8.93
2022-11-16T17:14:51.375Z,8.86
2022-11-16T17:17:21.229Z,8.82
2022-11-16T17:19:49.182Z,8.80
2022-11-16T17:22:17.420Z,8.75
2022-11-16T17:24:45.441Z,8.73
2022-11-16T17:27:13.847Z,8.69
2022-11-16T17:29:41.912Z,8.60
2022-11-16T17:32:09.913Z,8.58
2022-11-16T17:34:41.477Z,8.55
2022-11-16T17:37:09.580Z,8.61
2022-11-16T17:39:37.657Z,8.55
2022-11-16T17:42:06.193Z,8.57
2022-11-16T17:44:34.270Z,8.56
2022-11-16T17:47:02.356Z,8.54
2022-11-16T17:49:30.345Z,8.54
2022-11-16T17:51:59.992Z,8.57
2022-11-16T17:54:28.599Z,8.56
2022-11-16T17:56:56.721Z,8.53
2022-11-16T17:59:29.236Z,8.51
2022-11-16T18:01:59.232Z,8.49
2022-11-16T18:04:27.899Z,8.46
2022-11-16T18:06:56.203Z,8.43
2022-11-16T18:09:25.684Z,8.34
2022-11-16T18:11:53.827Z,8.38
2022-11-16T18:14:21.802Z,8.33
2022-11-16T18:16:50.108Z,8.36
2022-11-16T18:19:19.833Z,8.32
2022-11-16T18:21:48.788Z,8.26
2022-11-16T18:24:17.099Z,8.27
2022-11-16T18:26:46.520Z,8.27
2022-11-16T18:29:16.196Z,8.30
2022-11-16T18:31:44.338Z,8.28
2022-11-16T18:34:13.752Z,8.26
2022-11-16T18:36:41.773Z,8.24
2022-11-16T18:39:09.849Z,8.25
2022-11-16T18:41:38.343Z,8.25
2022-11-16T18:44:07.930Z,8.25
2022-11-16T18:46:36.009Z,8.33
2022-11-16T18:49:04.064Z,8.38
2022-11-16T18:51:32.212Z,8.44
2022-11-16T18:54:00.308Z,8.47
2022-11-16T18:56:28.360Z,8.53
2022-11-16T18:58:56.462Z,8.54
2022-11-16T19:01:27.430Z,8.58
2022-11-16T19:03:56.820Z,8.66
2022-11-16T19:06:25.381Z,8.74
2022-11-16T19:08:59.760Z,8.74
2022-11-16T19:11:29.528Z,8.78
2022-11-16T19:14:00.550Z,8.80
2022-11-16T19:16:29.950Z,8.80
2022-11-16T19:18:58.133Z,8.81
2022-11-16T19:21:26.164Z,8.83
2022-11-16T19:23:56.254Z,8.85
2022-11-16T19:26:26.034Z,8.85
2022-11-16T19:28:55.097Z,8.89
2022-11-16T19:31:24.853Z,8.92
2022-11-16T19:33:58.002Z,8.90
2022-11-16T19:36:27.571Z,8.90
2022-11-16T19:38:56.235Z,8.98
2022-11-16T19:41:24.673Z,8.99
2022-11-16T19:43:57.260Z,9.00
2022-11-16T19:46:25.658Z,9.03
2022-11-16T19:48:54.574Z,9.04
2022-11-16T19:51:25.644Z,9.04
2022-11-16T19:53:54.293Z,9.06
2022-11-16T19:56:24.319Z,9.15
2022-11-16T19:58:52.836Z,9.16
2022-11-16T20:01:23.119Z,9.13
2022-11-16T20:03:51.337Z,9.11
2022-11-16T20:06:21.366Z,9.14
2022-11-16T20:08:52.412Z,9.14
2022-11-16T20:11:23.109Z,9.12
2022-11-16T20:13:53.061Z,9.13
2022-11-16T20:16:23.451Z,9.13
2022-11-16T20:18:52.573Z,9.12
2022-11-16T20:21:24.098Z,9.22
2022-11-16T20:23:55.648Z,9.16
2022-11-16T20:26:24.963Z,9.19
2022-11-16T20:28:53.922Z,9.18
2022-11-16T20:31:23.628Z,9.13
2022-11-16T20:33:53.591Z,9.13
2022-11-16T20:36:22.897Z,9.17
2022-11-16T20:38:51.173Z,9.15
2022-11-16T20:41:22.588Z,9.21
2022-11-16T20:43:52.631Z,9.15
2022-11-16T20:46:24.733Z,9.15
2022-11-16T20:48:53.447Z,9.19
2022-11-16T20:51:23.976Z,9.15
2022-11-16T20:53:52.343Z,9.11
2022-11-16T20:56:22.463Z,9.16
2022-11-16T20:58:51.232Z,9.11
2022-11-16T21:01:21.104Z,9.06
2022-11-16T21:03:49.239Z,9.11
2022-11-16T21:06:17.364Z,9.11
2022-11-16T21:08:45.619Z,9.06
2022-11-16T21:11:15.189Z,9.09
2022-11-16T21:14:04.035Z,9.10
2022-11-16T21:16:32.569Z,9.03
2022-11-16T21:19:01.250Z,9.05
2022-11-16T21:21:29.676Z,9.07
2022-11-16T21:23:57.823Z,9.13
2022-11-16T21:26:27.764Z,9.10
2022-11-16T21:28:57.837Z,9.09
2022-11-16T21:31:27.661Z,9.03
2022-11-16T21:33:56.826Z,9.07
2022-11-16T21:36:26.400Z,9.09
2022-11-16T21:38:55.078Z,9.09
2022-11-16T21:41:25.036Z,9.12
2022-11-16T21:43:53.042Z,9.17
2022-11-16T21:46:24.884Z,9.13
2022-11-16T21:48:54.539Z,9.16
2022-11-16T21:51:24.787Z,9.17
2022-11-16T21:53:53.246Z,9.14
2022-11-16T21:56:24.003Z,9.14
2022-11-16T21:58:53.250Z,9.10
2022-11-16T22:01:24.013Z,9.14
2022-11-16T22:04:06.261Z,9.16
2022-11-16T22:06:51.541Z,9.22
2022-11-16T22:09:19.684Z,9.11
2022-11-16T22:11:47.671Z,9.17
2022-11-16T22:14:15.702Z,9.22
2022-11-16T22:16:45.111Z,9.11
2022-11-16T22:19:13.142Z,9.17
2022-11-16T22:21:41.198Z,9.23
2022-11-16T22:24:09.725Z,9.19
2022-11-16T22:26:39.929Z,9.20
2022-11-16T22:29:07.971Z,9.23
2022-11-16T22:31:36.429Z,9.24
2022-11-16T22:34:05.899Z,9.25
2022-11-16T22:36:34.044Z,9.25
2022-11-16T22:39:02.574Z,9.23
2022-11-16T22:41:30.645Z,9.26
2022-11-16T22:43:58.650Z,9.23
2022-11-16T22:46:26.808Z,9.22
2022-11-16T22:48:57.131Z,9.29
2022-11-16T22:51:27.742Z,9.27
2022-11-16T22:53:56.753Z,9.31
2022-11-16T22:56:25.118Z,9.37
2022-11-16T22:58:53.773Z,9.35
2022-11-16T23:01:22.419Z,9.35
2022-11-16T23:03:50.769Z,9.32
2022-11-16T23:06:18.981Z,9.30
2022-11-16T23:08:48.810Z,9.30
2022-11-16T23:11:36.494Z,9.32
2022-11-16T23:14:23.258Z,9.33
2022-11-16T23:16:51.643Z,9.29
2022-11-16T23:19:38.838Z,9.32
2022-11-16T23:22:26.296Z,9.35
2022-11-16T23:25:13.034Z,9.34
2022-11-16T23:27:43.833Z,9.37
2022-11-16T23:30:13.531Z,9.31
2022-11-16T23:32:42.354Z,9.34
2022-11-16T23:35:11.444Z,9.26
2022-11-16T23:37:54.603Z,9.28
2022-11-16T23:40:27.286Z,9.25
2022-11-16T23:43:12.871Z,9.26
2022-11-16T23:45:41.265Z,9.26
2022-11-16T23:48:10.749Z,9.23
2022-11-16T23:50:39.305Z,9.22
2022-11-16T23:53:09.023Z,9.23
2022-11-16T23:55:39.921Z,9.25
2022-11-16T23:58:09.172Z,9.22
